Flight Track Log - Related Links

Times and Time Zones

All times are in EDT time to prevent confusion due to time zone crossing. See the UAL1021 flight status page for this flight to view local times or setup timezone preferences in your user account.


Time Position Orientation Groundspeed Altitude Reporting Facility
EDT Latitude Longitude Course Direction KTS MPH feet Rate Location/Type
Tue 05:40:58 PM 40.6681 -74.1827 206° Southwest 115 132 700  Level FlightAware ADS-B
Tue 05:41:34 PM 40.6460 -74.2040 216° Southwest 204 235 1,400 1,364 Climbing FlightAware ADS-B
Tue 05:41:42 PM 40.6440 -74.2160 258° West 216 249 1,700 2,647 Climbing FlightAware ADS-B
Tue 05:42:08 PM 40.6470 -74.2520 276° West 228 262 2,900 2,444 Climbing FlightAware ADS-B
Tue 05:42:36 PM 40.6460 -74.2870 268° West 228 262 3,900 2,100 Climbing FlightAware ADS-B
Tue 05:42:48 PM 40.6424 -74.3095 258° West 249 287 4,300 2,813 Climbing FlightAware ADS-B
Tue 05:43:08 PM 40.6386 -74.3400 261° West 249 287 5,400 3,000 Climbing FlightAware ADS-B
Tue 05:43:24 PM 40.6355 -74.3638 260° West 250 288 6,100 2,625 Climbing FlightAware ADS-B
Tue 05:43:40 PM 40.6322 -74.3876 260° West 254 292 6,800 2,710 Climbing FlightAware ADS-B
Tue 05:43:55 PM 40.6289 -74.4105 259° West 258 297 7,500 2,516 Climbing FlightAware ADS-B
Tue 05:44:11 PM 40.6254 -74.4348 259° West 262 302 8,100 2,323 Climbing FlightAware ADS-B
Tue 05:44:26 PM 40.6219 -74.4587 259° West 266 306 8,700 2,538 Climbing FlightAware ADS-B
Tue 05:44:37 PM 40.6194 -74.4761 259° West 268 308 9,200 2,444 Climbing FlightAware ADS-B
Tue 05:44:53 PM 40.6160 -74.5035 261° West 274 315 9,800 1,875 Climbing FlightAware ADS-B
Tue 05:45:09 PM 40.6130 -74.5288 261° West 281 323 10,200 1,714 Climbing FlightAware ADS-B
Tue 05:45:14 PM 40.6112 -74.5374 255° West 284 327 10,400 1,200 Climbing FlightAware ADS-B
Tue 05:45:19 PM 40.6092 -74.5455 252° West 290 334 10,400 545 Level FlightAware ADS-B
Tue 05:45:25 PM 40.6060 -74.5560 248° West 297 342 10,500 1,143 Climbing FlightAware ADS-B
Tue 05:45:40 PM 40.5968 -74.5808 244° Southwest 307 353 10,800 1,435 Climbing FlightAware ADS-B
Tue 05:46:11 PM 40.5743 -74.6331 240° Southwest 329 379 11,600 1,475 Climbing FlightAware ADS-B
Tue 05:46:41 PM 40.5501 -74.6864 239° Southwest 350 403 12,300 1,967 Climbing FlightAware ADS-B
Tue 05:47:12 PM 40.5224 -74.7422 237° Southwest 352 405 13,600 2,421 Climbing FlightAware ADS-B
Tue 05:47:38 PM 40.5008 -74.7895 239° Southwest 354 407 14,600 2,300 Climbing FlightAware ADS-B
Tue 05:48:12 PM 40.4729 -74.8536 240° Southwest 357 411 15,900 1,969 Climbing FlightAware ADS-B
Tue 05:48:42 PM 40.4479 -74.9123 241° Southwest 369 425 16,700 1,636 Climbing FlightAware ADS-B
Tue 05:49:07 PM 40.4256 -74.9597 238° Southwest 373 429 17,400 1,688 Climbing FlightAware ADS-B
Tue 05:49:14 PM 40.4191 -74.9716 234° Southwest 373 429 17,600 2,308 Climbing FlightAware ADS-B
Tue 05:49:33 PM 40.3978 -75.0038 229° Southwest 369 425 18,400 1,959 Climbing FlightAware ADS-B
Tue 05:50:03 PM 40.3618 -75.0534 226° Southwest 376 433 19,200 1,385 Climbing FlightAware ADS-B
Tue 05:50:25 PM 40.3344 -75.0909 226° Southwest 385 443 19,600 1,472 Climbing FlightAware ADS-B
Tue 05:50:56 PM 40.2976 -75.1434 227° Southwest 389 448 20,500 1,574 Climbing FlightAware ADS-B
Tue 05:51:26 PM 40.2606 -75.1965 228° Southwest 395 455 21,200 1,500 Climbing FlightAware ADS-B
Tue 05:51:56 PM 40.2228 -75.2491 227° Southwest 397 457 22,000 1,475 Climbing FlightAware ADS-B
Tue 05:52:27 PM 40.1833 -75.3034 226° Southwest 403 464 22,700 1,082 Climbing FlightAware ADS-B
Tue 05:52:57 PM 40.1445 -75.3580 227° Southwest 413 475 23,100 1,100 Climbing FlightAware ADS-B
Tue 05:53:27 PM 40.1056 -75.4128 227° Southwest 415 478 23,800 1,241 Climbing FlightAware ADS-B
Tue 05:53:55 PM 40.0685 -75.4642 227° Southwest 421 484 24,300 1,034 Climbing FlightAware ADS-B
Tue 05:54:25 PM 40.0280 -75.5198 226° Southwest 425 489 24,800 1,000 Climbing FlightAware ADS-B
Tue 05:54:55 PM 39.9873 -75.5762 227° Southwest 431 496 25,300 1,279 Climbing FlightAware ADS-B
Tue 05:55:26 PM 39.9458 -75.6336 227° Southwest 427 491 26,100 1,500 Climbing FlightAware ADS-B
Tue 05:55:51 PM 39.9121 -75.6808 227° Southwest 425 489 26,700 1,138 Climbing FlightAware ADS-B
Tue 05:56:24 PM 39.8708 -75.7450 230° Southwest 427 491 27,200 1,065 Climbing FlightAware ADS-B
Tue 05:56:53 PM 39.8337 -75.8030 230° Southwest 426 490 27,800 1,000 Climbing FlightAware ADS-B
Tue 05:57:24 PM 39.7968 -75.8639 232° Southwest 427 491 28,200 857 Climbing FlightAware ADS-B
Tue 05:57:56 PM 39.7570 -75.9286 231° Southwest 429 494 28,700 1,143 Climbing FlightAware ADS-B
Tue 05:58:27 PM 39.7179 -75.9904 231° Southwest 425 489 29,400 1,333 Climbing FlightAware ADS-B
Tue 05:58:59 PM 39.6785 -76.0532 231° Southwest 420 483 30,100 1,125 Climbing FlightAware ADS-B
Tue 05:59:31 PM 39.6392 -76.1149 230° Southwest 420 483 30,600 844 Climbing FlightAware ADS-B
Tue 06:00:03 PM 39.5992 -76.1767 230° Southwest 421 484 31,000 738 Climbing FlightAware ADS-B
Tue 06:00:36 PM 39.5577 -76.2419 230° Southwest 422 486 31,400 716 Climbing FlightAware ADS-B
Tue 06:01:10 PM 39.5156 -76.3072 230° Southwest 424 488 31,800 522 Climbing FlightAware ADS-B
Tue 06:01:45 PM 39.4710 -76.3740 229° Southwest 427 491 32,000 169 Climbing FlightAware ADS-B
Tue 06:02:21 PM 39.4252 -76.4432 229° Southwest 422 486 32,000  Level FlightAware ADS-B
Tue 06:02:52 PM 39.3880 -76.5040 232° Southwest 419 482 32,000  Level FlightAware ADS-B
Tue 06:03:23 PM 39.3505 -76.5646 231° Southwest 418 481 32,000  Level FlightAware ADS-B
Tue 06:03:53 PM 39.3136 -76.6229 231° Southwest 416 479 32,000  Level FlightAware ADS-B
Tue 06:04:28 PM 39.2704 -76.6903 230° Southwest 416 479 32,000  Level FlightAware ADS-B
Tue 06:05:00 PM 39.2319 -76.7504 230° Southwest 414 476 32,000  Level FlightAware ADS-B
Tue 06:05:30 PM 39.1953 -76.8072 230° Southwest 413 475 32,000  Level FlightAware ADS-B
Tue 06:06:00 PM 39.1584 -76.8646 230° Southwest 412 474 32,000  Level FlightAware ADS-B
Tue 06:06:32 PM 39.1205 -76.9234 230° Southwest 408 470 32,000  Level FlightAware ADS-B
Tue 06:07:04 PM 39.0827 -76.9822 230° Southwest 401 461 32,000  Level FlightAware ADS-B
Tue 06:07:28 PM 39.0533 -77.0262 229° Southwest 398 458 32,000  Level FlightAware ADS-B
Tue 06:07:45 PM 39.0305 -77.0536 223° Southwest 398 458 32,000  Level FlightAware ADS-B
Tue 06:08:15 PM 38.9882 -77.1003 221° Southwest 397 457 32,000  Level FlightAware ADS-B
Tue 06:08:48 PM 38.9425 -77.1505 221° Southwest 396 456 32,000  Level FlightAware ADS-B
Tue 06:09:22 PM 38.8957 -77.2018 220° Southwest 395 455 32,000  Level FlightAware ADS-B
Tue 06:09:52 PM 38.8538 -77.2478 221° Southwest 398 458 32,000  Level FlightAware ADS-B
Tue 06:10:32 PM 38.7981 -77.3086 220° Southwest 399 459 32,000  Level FlightAware ADS-B
Tue 06:11:21 PM 38.7300 -77.3820 220° Southwest 398 458 32,000  Level FlightAware ADS-B
Tue 06:11:51 PM 38.6862 -77.4304 221° Southwest 399 459 32,000  Level FlightAware ADS-B
Tue 06:12:27 PM 38.6370 -77.4841 220° Southwest 399 459 32,000  Level FlightAware ADS-B
Tue 06:12:59 PM 38.5943 -77.5304 220° Southwest 383 441 32,000  Level FlightAware ADS-B
Tue 06:13:30 PM 38.5530 -77.5751 220° Southwest 381 438 32,000  Level FlightAware ADS-B
Tue 06:14:00 PM 38.5129 -77.6184 220° Southwest 380 437 32,000  Level FlightAware ADS-B
Tue 06:14:31 PM 38.4705 -77.6642 220° Southwest 379 436 32,000  Level FlightAware ADS-B
Tue 06:15:27 PM 38.3960 -77.7450 220° Southwest 379 436 32,000  Level FlightAware ADS-B
Tue 06:15:45 PM 38.3714 -77.7711 220° Southwest 379 436 32,000  Level FlightAware ADS-B
Tue 06:16:36 PM 38.3035 -77.8440 220° Southwest 379 436 32,000  Level FlightAware ADS-B
Tue 06:17:25 PM 38.2380 -77.9140 220° Southwest 378 435 32,000  Level FlightAware ADS-B
Tue 06:18:09 PM 38.1790 -77.9770 220° Southwest 379 436 32,000  Level FlightAware ADS-B
Tue 06:18:42 PM 38.1350 -78.0240 220° Southwest 378 435 32,000  Level FlightAware ADS-B
Tue 06:19:27 PM 38.0750 -78.0880 220° Southwest 378 435 32,000  Level FlightAware ADS-B
Tue 06:20:07 PM 38.0170 -78.1400 215° Southwest 377 434 32,000  Level FlightAware ADS-B
Tue 06:20:23 PM 37.9900 -78.1460 190° South 381 438 32,000  Level FlightAware ADS-B
Tue 06:20:58 PM 37.9300 -78.1340 171° South 378 435 32,000  Level FlightAware ADS-B
Tue 06:21:53 PM 37.8440 -78.1150 170° South 379 436 32,000  Level FlightAware ADS-B
Tue 06:22:42 PM 37.7440 -78.0920 170° South 406 467 32,000  Level FlightAware ADS-B
Tue 06:23:22 PM 37.6660 -78.0750 170° South 419 482 32,000  Level FlightAware ADS-B
Tue 06:23:58 PM 37.5990 -78.0590 169° South 421 484 32,000  Level FlightAware ADS-B
Tue 06:24:38 PM 37.5230 -78.0430 171° South 422 486 32,000  Level FlightAware ADS-B
Tue 06:25:24 PM 37.4360 -78.0230 170° South 423 487 32,000  Level FlightAware ADS-B
Tue 06:25:56 PM 37.3760 -78.0100 170° South 423 487 32,000  Level FlightAware ADS-B
Tue 06:26:40 PM 37.2860 -77.9900 170° South 422 486 32,000  Level FlightAware ADS-B
Tue 06:27:34 PM 37.1910 -77.9680 170° South 422 486 32,000  Level FlightAware ADS-B
Tue 06:28:16 PM 37.1020 -77.9490 170° South 421 484 32,000  Level FlightAware ADS-B
Tue 06:28:54 PM 37.0380 -77.9350 170° South 421 484 32,000  Level FlightAware ADS-B
Tue 06:30:22 PM 36.8600 -77.8990 171° South 422 486 32,000  Level FlightAware ADS-B
Tue 06:31:14 PM 36.7590 -77.8790 171° South 424 488 32,000  Level FlightAware ADS-B
Tue 06:31:48 PM 36.6950 -77.8660 171° South 425 489 32,000  Level FlightAware ADS-B
Tue 06:32:31 PM 36.6090 -77.8490 171° South 426 490 32,000  Level FlightAware ADS-B
Tue 06:33:09 PM 36.5340 -77.8340 171° South 426 490 32,000  Level FlightAware ADS-B
Tue 06:33:53 PM 36.4480 -77.8170 171° South 428 493 32,000  Level FlightAware ADS-B
Tue 06:34:31 PM 36.3740 -77.8020 171° South 429 494 32,000  Level FlightAware ADS-B
Tue 06:35:17 PM 36.2830 -77.7840 171° South 430 495 32,000 267 Level FlightAware ADS-B
Tue 06:36:01 PM 36.1970 -77.7670 171° South 434 499 32,400 714 Climbing FlightAware ADS-B
Tue 06:36:41 PM 36.1170 -77.7520 171° South 433 498 33,000 805 Climbing FlightAware ADS-B
Tue 06:37:23 PM 36.0330 -77.7350 171° South 432 497 33,500 711 Climbing FlightAware ADS-B
Tue 06:37:57 PM 35.9670 -77.7220 171° South 432 497 33,900 385 Climbing FlightAware ADS-B
Tue 06:38:41 PM 35.8790 -77.7050 171° South 434 499 34,000 77 Climbing FlightAware ADS-B
Tue 06:39:15 PM 35.8130 -77.6920 171° South 434 499 34,000  Level FlightAware ADS-B
Tue 06:39:55 PM 35.7330 -77.6760 171° South 435 501 34,000  Level FlightAware ADS-B
Tue 06:41:24 PM 35.5620 -77.6430 171° South 436 502 34,000  Level FlightAware ADS-B
Tue 06:42:01 PM 35.5000 -77.6310 171° South 436 502 34,000  Level FlightAware ADS-B
Tue 06:42:38 PM 35.4370 -77.6190 171° South 436 502 34,000  Level FlightAware ADS-B
Tue 06:43:26 PM 35.3560 -77.6030 171° South 436 502 34,000  Level FlightAware ADS-B
Tue 06:44:02 PM 35.2950 -77.5910 171° South 436 502 34,000  Level FlightAware ADS-B
Tue 06:44:50 PM 35.2130 -77.5760 171° South 436 502 34,000  Level FlightAware ADS-B
Tue 06:45:38 PM 35.1320 -77.5600 171° South 436 502 34,000  Level FlightAware ADS-B
Tue 06:46:14 PM 35.0710 -77.5480 171° South 436 502 34,000  Level FlightAware ADS-B
Tue 06:46:50 PM 35.0100 -77.5360 171° South 436 502 34,000  Level FlightAware ADS-B
Tue 06:47:39 PM 34.9270 -77.5200 171° South 436 502 34,000  Level FlightAware ADS-B
Tue 06:48:16 PM 34.8650 -77.5080 171° South 436 502 34,000  Level FlightAware ADS-B
Tue 06:49:04 PM 34.7830 -77.4920 171° South 436 502 34,000  Level FlightAware ADS-B
Tue 06:49:38 PM 34.7260 -77.4810 171° South 436 502 34,000  Level FlightAware ADS-B
Tue 06:50:27 PM 34.6430 -77.4650 171° South 436 502 34,000  Level FlightAware ADS-B
Tue 06:51:27 PM 34.3475 -77.6139 171° South 443 510 34,000  Level Jacksonville Center
Tue 06:52:27 PM 34.2147 -77.6294 186° South 443 510 34,000  Level Jacksonville Center
Tue 06:53:27 PM 34.0964 -77.6442 186° South 457 526 34,000  Level Jacksonville Center
Tue 06:54:27 PM 33.9761 -77.6564 185° South 457 526 34,000  Level Jacksonville Center
Tue 06:55:27 PM 33.8514 -77.6714 186° South 457 526 34,000  Level Jacksonville Center
Tue 06:56:27 PM 33.7292 -77.6886 187° South 457 526 34,000  Level Jacksonville Center
Tue 06:57:27 PM 33.5897 -77.7019 185° South 457 526 34,000  Level Jacksonville Center
Tue 06:58:27 PM 33.4694 -77.7139 185° South 452 520 34,000  Level Jacksonville Center
Tue 06:59:27 PM 33.3467 -77.7286 186° South 447 514 34,000  Level Jacksonville Center
Tue 07:00:27 PM 33.2222 -77.7456 186° South 447 514 34,000  Level Jacksonville Center
Tue 07:01:27 PM 33.0997 -77.7578 185° South 447 514 34,000  Level Jacksonville Center
Tue 07:02:27 PM 32.9750 -77.7722 186° South 447 514 34,000 -50 Level Jacksonville Center
Tue 07:03:27 PM 32.8525 -77.7842 185° South 447 514 33,900 -50 Descending Jacksonville Center
Tue 07:04:27 PM 32.7278 -77.7986 186° South 447 514 33,900 50 Level Jacksonville Center
Tue 07:05:27 PM 32.6031 -77.8106 185° South 447 514 34,000 50 Climbing Jacksonville Center
Tue 07:06:27 PM 32.4806 -77.8297 188° South 447 514 34,000  Level Jacksonville Center
Tue 07:07:27 PM 32.3558 -77.8417 185° South 447 514 34,000  Level Jacksonville Center
Tue 07:08:27 PM 32.2331 -77.8483 183° South 447 514 34,000 -50 Level Jacksonville Center
Tue 07:09:27 PM 32.1075 -77.8431 178° South 447 514 33,900  Descending Jacksonville Center
Tue 07:10:28 PM 31.9819 -77.8328 176° South 447 514 34,000 50 Climbing Jacksonville Center
Tue 07:11:27 PM 31.8564 -77.8275 178° South 452 520 34,000  Level Jacksonville Center
Tue 07:12:27 PM 31.7311 -77.8222 178° South 452 520 34,000  Level Jacksonville Center
Tue 07:13:27 PM 31.6036 -77.8169 178° South 452 520 34,000  Level Jacksonville Center
Tue 07:14:27 PM 31.4800 -77.8067 176° South 457 526 34,000  Level Jacksonville Center
Tue 07:15:27 PM 31.3525 -77.8014 178° South 462 532 34,000 -50 Level Jacksonville Center
Tue 07:16:27 PM 31.2247 -77.7936 177° South 462 532 33,900  Descending Jacksonville Center
Tue 07:17:27 PM 31.1014 -77.7833 176° South 462 532 34,000 50 Climbing Jacksonville Center
Tue 07:18:27 PM 30.9717 -77.7783 178° South 462 532 34,000  Level Jacksonville Center
Tue 07:19:27 PM 30.8461 -77.7683 176° South 462 532 34,000 -31 Level Jacksonville Center
Tue 07:21:40 PM 30.5839 -77.7617 179° South 453 521 33,900  Descending Miami Center
Tue 07:22:40 PM 30.4569 -77.7533 177° South 467 537 34,000 50 Climbing Miami Center
Tue 07:23:40 PM 30.3194 -77.7472 178° South 469 540 34,000  Level Miami Center
Tue 07:24:39 PM 30.1983 -77.7464 180° South 458 527 34,000  Level Miami Center
Tue 07:25:39 PM 30.0692 -77.7356 176° South 452 520 34,000  Level Miami Center
Tue 07:26:39 PM 29.9419 -77.7322 179° South 463 533 34,000  Level Miami Center
Tue 07:27:39 PM 29.8108 -77.7217 176° South 463 533 34,000  Level Miami Center
Tue 07:28:39 PM 29.6836 -77.7158 178° South 463 533 34,000  Level Miami Center
Tue 07:29:39 PM 29.5542 -77.7125 179° South 468 539 34,000 -50 Level Miami Center
Tue 07:30:40 PM 29.4269 -77.7042 177° South 460 529 33,900  Descending Miami Center
Tue 07:31:39 PM 29.3019 -77.7008 179° South 463 533 34,000 50 Climbing Miami Center
Tue 07:32:40 PM 29.1747 -77.6928 177° South 457 526 34,000  Level Miami Center
Tue 07:33:40 PM 29.0350 -77.6822 176° South 469 540 34,000  Level Miami Center
Tue 07:34:39 PM 28.9097 -77.6789 179° South 469 540 34,000  Level Miami Center
Tue 07:35:39 PM 28.7931 -77.6733 178° South 457 526 34,000 -50 Level Miami Center
Tue 07:36:39 PM 28.6572 -77.6631 176° South 459 528 33,900  Descending Miami Center
Tue 07:37:40 PM 28.5258 -77.6572 178° South 498 573 34,000 50 Climbing Miami Center
Tue 07:38:40 PM 28.3861 -77.6492 177° South 491 565 34,000  Level Miami Center
Tue 07:39:40 PM 28.2631 -77.6436 178° South 485 558 34,000  Level Miami Center
Tue 07:40:40 PM 28.1336 -77.6358 177° South 470 541 34,000  Level Miami Center
Tue 07:41:40 PM 28.0000 -77.6300 178° South 470 541 34,000 -50 Level Miami Center
Tue 07:42:40 PM 27.8683 -77.6197 176° South 475 547 33,900 80 Descending Miami Center
Tue 07:47:57 PM 27.1630 -77.5790 176° South 463 533 34,500 100 Climbing FlightAware ADS-B
Tue 07:48:40 PM 27.0850 -77.5740 177° South 463 533 34,500  Level FlightAware ADS-B
Tue 07:49:17 PM 27.0180 -77.5700 177° South 463 533 34,500  Level FlightAware ADS-B
Tue 07:50:03 PM 26.9350 -77.5650 177° South 463 533 34,500  Level FlightAware ADS-B
Tue 07:50:39 PM 26.8690 -77.5610 177° South 463 533 34,500  Level FlightAware ADS-B
Tue 07:51:27 PM 26.7820 -77.5560 177° South 463 533 34,500  Level FlightAware ADS-B
Tue 07:52:18 PM 26.6890 -77.5510 177° South 463 533 34,500  Level FlightAware ADS-B
Tue 07:53:06 PM 26.6020 -77.5460 177° South 463 533 34,500  Level FlightAware ADS-B
Tue 07:53:42 PM 26.5360 -77.5420 177° South 463 533 34,500  Level FlightAware ADS-B
Tue 07:54:31 PM 26.4470 -77.5370 177° South 463 533 34,500  Level FlightAware ADS-B
Tue 07:55:08 PM 26.3800 -77.5330 177° South 463 533 34,500 366 Level FlightAware ADS-B
Tue 07:55:53 PM 26.1570 -77.7880 226° Southwest 461 531 35,000 353 Climbing FlightAware ADS-B
Tue 07:56:33 PM 26.0860 -77.8040 191° South 461 531 35,000  Level FlightAware ADS-B
Tue 07:57:18 PM 25.9910 -77.8270 192° South 461 531 35,000  Level FlightAware ADS-B
Tue 07:57:58 PM 25.8930 -77.8500 192° South 457 526 35,000  Level FlightAware ADS-B
Tue 07:58:42 PM 25.7990 -77.8710 191° South 457 526 35,000  Level FlightAware ADS-B
Tue 07:59:38 PM 25.6870 -77.8970 192° South 459 528 35,000  Level FlightAware ADS-B
Tue 08:00:22 PM 25.5840 -77.8870 175° South 477 549 35,000  Level FlightAware ADS-B
Tue 08:01:19 PM 25.4750 -77.8600 167° South 476 548 35,000  Level FlightAware ADS-B
Tue 08:01:53 PM 25.3870 -77.8400 168° South 477 549 35,000  Level FlightAware ADS-B
Tue 08:02:40 PM 25.3020 -77.8190 167° South 477 549 35,000  Level FlightAware ADS-B
Tue 08:03:32 PM 25.1720 -77.7890 168° South 480 552 35,000  Level FlightAware ADS-B
Tue 08:04:04 PM 25.1180 -77.7760 168° South 480 552 35,000  Level FlightAware ADS-B
Tue 08:04:53 PM 25.0280 -77.7530 167° South 480 552 35,000  Level FlightAware ADS-B
Tue 08:05:29 PM 24.9610 -77.7360 167° South 480 552 35,000  Level FlightAware ADS-B
Tue 08:06:19 PM 24.8690 -77.7120 167° South 480 552 35,000  Level FlightAware ADS-B
Tue 08:06:55 PM 24.8030 -77.6960 168° South 480 552 35,000  Level FlightAware ADS-B
Tue 08:07:44 PM 24.7130 -77.6730 167° South 480 552 35,000  Level FlightAware ADS-B
Tue 08:08:22 PM 24.6430 -77.6550 167° South 480 552 35,000  Level FlightAware ADS-B
Tue 08:08:58 PM 24.5770 -77.6380 167° South 480 552 35,000  Level FlightAware ADS-B
Tue 08:09:35 PM 24.5090 -77.6210 167° South 480 552 35,000  Level FlightAware ADS-B
Tue 08:10:23 PM 24.4210 -77.5980 167° South 480 552 35,000  Level FlightAware ADS-B
Tue 08:11:01 PM 24.3510 -77.5810 168° South 480 552 35,000  Level FlightAware ADS-B
Tue 08:11:34 PM 24.2900 -77.5650 167° South 480 552 35,000  Level FlightAware ADS-B
Tue 08:12:24 PM 24.1980 -77.5420 167° South 480 552 35,000  Level FlightAware ADS-B
Tue 08:13:00 PM 24.1320 -77.5250 167° South 480 552 35,000  Level FlightAware ADS-B
Tue 08:13:40 PM 23.8450 -77.4450 167° South 485 558 35,000  Level Miami Center
Tue 08:14:39 PM 23.7114 -77.4081 166° South 491 565 35,000  Level Miami Center
Tue 08:15:40 PM 23.5800 -77.3714 166° South 491 565 35,000  Level Miami Center
Tue 08:17:00 PM 23.4157 -77.3554 175° South  Level FlightAware Approximate
Tue 08:24:00 PM 22.5530 -77.2720 175° South  Level FlightAware Approximate
Tue 08:25:00 PM 22.4298 -77.2601 175° South  Level FlightAware Approximate
Tue 08:26:00 PM 22.3066 -77.2483 175° South  Level FlightAware Approximate
Tue 08:27:00 PM 22.1833 -77.2365 175° South  Level FlightAware Approximate
Tue 08:28:00 PM 22.0601 -77.2248 175° South  Level FlightAware Approximate
Tue 08:29:00 PM 21.9368 -77.2130 175° South  Level FlightAware Approximate
Tue 08:30:00 PM 21.8136 -77.2013 175° South  Level FlightAware Approximate
Tue 08:31:00 PM 21.6904 -77.1896 175° South  Level FlightAware Approximate
Tue 08:32:00 PM 21.5671 -77.1779 175° South  Level FlightAware Approximate
Tue 08:33:00 PM 21.4439 -77.1663 175° South  Level FlightAware Approximate
Tue 08:34:00 PM 21.3206 -77.1546 175° South  Level FlightAware Approximate
Tue 08:35:00 PM 21.1974 -77.1430 175° South  Level FlightAware Approximate
Tue 08:36:00 PM 21.0741 -77.1314 175° South  Level FlightAware Approximate
Tue 08:37:00 PM 20.9509 -77.1198 175° South  Level FlightAware Approximate
Tue 08:38:00 PM 20.8276 -77.1082 175° South  Level FlightAware Approximate
Tue 08:39:00 PM 20.7044 -77.0966 175° South  Level FlightAware Approximate
Tue 08:40:00 PM 20.5811 -77.0851 175° South  Level FlightAware Approximate
Tue 08:41:00 PM 20.4579 -77.0736 175° South  Level FlightAware Approximate
Tue 08:42:00 PM 20.3342 -77.0614 174° South  Level FlightAware Approximate
Tue 08:43:00 PM 20.2110 -77.0483 174° South  Level FlightAware Approximate
Tue 08:44:00 PM 20.0879 -77.0352 174° South  Level FlightAware Approximate
Tue 08:45:00 PM 19.9648 -77.0221 174° South  Level FlightAware Approximate
Tue 08:46:00 PM 19.8417 -77.0090 174° South  Level FlightAware Approximate
Tue 08:47:00 PM 19.7186 -76.9960 174° South  Level FlightAware Approximate
Tue 08:48:00 PM 19.5955 -76.9829 174° South  Level FlightAware Approximate
Tue 08:49:00 PM 19.4724 -76.9699 174° South  Level FlightAware Approximate
Tue 08:50:00 PM 19.3493 -76.9569 174° South  Level FlightAware Approximate
Tue 08:51:00 PM 19.2263 -76.9423 173° South  Level FlightAware Approximate
Tue 08:52:00 PM 19.1036 -76.9257 173° South  Level FlightAware Approximate
Tue 08:53:00 PM 18.9809 -76.9092 173° South  Level FlightAware Approximate
Tue 08:54:00 PM 18.8581 -76.8926 173° South  Level FlightAware Approximate
Tue 08:55:00 PM 18.7354 -76.8761 173° South  Level FlightAware Approximate
Tue 08:56:00 PM 18.6127 -76.8597 173° South  Level FlightAware Approximate
Tue 08:57:00 PM 18.4900 -76.8432 173° South  Level FlightAware Approximate
Tue 08:58:00 PM 18.3672 -76.8268 173° South  Level FlightAware Approximate
Tue 08:59:00 PM 18.2445 -76.8104 173° South  Level FlightAware Approximate
Tue 09:00:00 PM 18.1217 -76.7940 173° South  Level FlightAware Approximate
Tue 09:01:00 PM 17.9990 -76.7776 173° South  Level FlightAware Approximate
Tue 09:02:00 PM 17.8777 -76.7791 197° South  Level FlightAware Approximate
Tue 09:03:00 PM 17.7593 -76.8169 197° South  Level FlightAware Approximate
Tue 09:04:00 PM 17.6409 -76.8546 197° South  Level FlightAware Approximate
Tue 09:05:00 PM 17.5225 -76.8923 197° South  Level FlightAware Approximate
Tue 09:06:00 PM 17.4041 -76.9299 197° South  Level FlightAware Approximate
Tue 09:07:00 PM 17.2857 -76.9675 197° South  Level FlightAware Approximate
Tue 09:08:00 PM 17.1673 -77.0050 197° South  Level FlightAware Approximate
Tue 09:09:00 PM 17.0489 -77.0425 197° South  Level FlightAware Approximate
Tue 09:10:00 PM 16.9304 -77.0799 197° South  Level FlightAware Approximate
Tue 09:11:00 PM 16.8120 -77.1173 197° South  Level FlightAware Approximate
Tue 09:12:00 PM 16.6936 -77.1546 197° South  Level FlightAware Approximate
Tue 09:13:00 PM 16.5751 -77.1919 197° South  Level FlightAware Approximate
Tue 09:14:00 PM 16.4566 -77.2291 197° South  Level FlightAware Approximate
Tue 09:15:00 PM 16.3382 -77.2663 197° South  Level FlightAware Approximate
Tue 09:16:00 PM 16.2197 -77.3035 197° South  Level FlightAware Approximate
Tue 09:17:00 PM 16.1012 -77.3406 197° South  Level FlightAware Approximate
Tue 09:18:00 PM 15.9828 -77.3776 197° South  Level FlightAware Approximate
Tue 09:19:00 PM 15.8643 -77.4147 197° South  Level FlightAware Approximate
Tue 09:20:00 PM 15.7458 -77.4516 197° South  Level FlightAware Approximate
Tue 09:21:00 PM 15.6273 -77.4886 197° South  Level FlightAware Approximate
Tue 09:22:00 PM 15.5088 -77.5255 197° South  Level FlightAware Approximate
Tue 09:23:00 PM 15.3903 -77.5623 197° South  Level FlightAware Approximate
Tue 09:24:00 PM 15.2717 -77.5991 197° South  Level FlightAware Approximate
Tue 09:25:00 PM 15.1532 -77.6359 197° South  Level FlightAware Approximate
Tue 09:26:00 PM 15.0347 -77.6726 197° South  Level FlightAware Approximate
Tue 09:27:00 PM 14.9162 -77.7095 197° South  Level FlightAware Approximate
Tue 09:28:00 PM 14.7977 -77.7465 197° South  Level FlightAware Approximate
Tue 09:29:00 PM 14.6793 -77.7834 197° South  Level FlightAware Approximate
Tue 09:30:00 PM 14.5608 -77.8203 197° South  Level FlightAware Approximate
Tue 09:31:00 PM 14.4424 -77.8571 197° South  Level FlightAware Approximate
Tue 09:32:00 PM 14.3239 -77.8939 197° South  Level FlightAware Approximate
Tue 09:33:00 PM 14.2054 -77.9307 197° South  Level FlightAware Approximate
Tue 09:34:00 PM 14.0869 -77.9674 197° South  Level FlightAware Approximate
Tue 09:35:00 PM 13.9684 -78.0041 197° South  Level FlightAware Approximate
Tue 09:36:00 PM 13.8499 -78.0407 197° South  Level FlightAware Approximate
Tue 09:37:00 PM 13.7314 -78.0773 197° South  Level FlightAware Approximate
Tue 09:38:00 PM 13.6129 -78.1139 197° South  Level FlightAware Approximate
Tue 09:39:00 PM 13.4943 -78.1503 196° South  Level FlightAware Approximate
Tue 09:40:00 PM 13.3757 -78.1863 196° South  Level FlightAware Approximate
Tue 09:41:00 PM 13.2570 -78.2223 196° South  Level FlightAware Approximate
Tue 09:42:00 PM 13.1384 -78.2583 196° South  Level FlightAware Approximate
Tue 09:43:00 PM 13.0197 -78.2942 196° South  Level FlightAware Approximate
Tue 09:44:00 PM 12.9010 -78.3301 196° South  Level FlightAware Approximate
Tue 09:45:00 PM 12.7823 -78.3660 196° South  Level FlightAware Approximate
Tue 09:46:00 PM 12.6637 -78.4019 196° South  Level FlightAware Approximate
Tue 09:47:00 PM 12.5450 -78.4377 196° South  Level FlightAware Approximate
Tue 09:48:00 PM 12.4263 -78.4734 196° South  Level FlightAware Approximate
Tue 09:49:00 PM 12.3076 -78.5092 196° South  Level FlightAware Approximate
Tue 09:49:39 PM 11.5960 -78.7200 196° South 462 532 35,000  Level FlightAware ADS-B
Tue 09:50:00 PM 12.1889 -78.5449 196° South  Level FlightAware Approximate
Tue 09:50:19 PM 11.5110 -78.7390 192° South 460 529 35,000  Level FlightAware ADS-B
Tue 09:50:59 PM 11.4310 -78.7570 192° South 460 529 35,000  Level FlightAware ADS-B
Tue 09:51:39 PM 11.3450 -78.7760 192° South 459 528 35,000  Level FlightAware ADS-B
Tue 09:52:35 PM 11.2280 -78.8030 193° South 457 526 35,000  Level FlightAware ADS-B
Tue 09:53:15 PM 11.1470 -78.8210 192° South 448 516 35,000  Level FlightAware ADS-B
Tue 09:53:50 PM 11.0730 -78.8380 193° South 448 516 35,000  Level FlightAware ADS-B
Tue 09:54:35 PM 10.9800 -78.8580 192° South 448 516 35,000  Level FlightAware ADS-B
Tue 09:55:15 PM 10.8980 -78.8770 193° South 449 517 35,000  Level FlightAware ADS-B
Tue 09:55:55 PM 10.8160 -78.8950 192° South 457 526 35,000  Level FlightAware ADS-B
Tue 09:56:40 PM 10.7210 -78.9160 192° South 458 527 35,000  Level FlightAware ADS-B
Tue 09:57:25 PM 10.6280 -78.9370 193° South 460 529 35,000 -635 Level FlightAware ADS-B
Tue 09:58:05 PM 10.5440 -78.9560 193° South 457 526 34,100 -2,100 Descending FlightAware ADS-B
Tue 09:58:45 PM 10.4600 -78.9750 193° South 465 535 32,200 -2,741 Descending FlightAware ADS-B
Tue 09:59:26 PM 10.3740 -78.9940 192° South 464 534 30,400 -2,545 Descending FlightAware ADS-B
Tue 09:59:51 PM 10.3210 -79.0060 193° South 461 531 29,400 -2,325 Descending FlightAware ADS-B
Tue 10:00:46 PM 10.2090 -79.0310 192° South 442 509 27,300 -2,337 Descending FlightAware ADS-B
Tue 10:01:26 PM 10.1260 -79.0490 192° South 442 509 25,700 -2,259 Descending FlightAware ADS-B
Tue 10:02:11 PM 10.0380 -79.0690 193° South 432 497 24,100 -2,188 Descending FlightAware ADS-B
Tue 10:02:51 PM 9.9600 -79.0860 192° South 415 478 22,600 -2,163 Descending FlightAware ADS-B
Tue 10:03:37 PM 9.8730 -79.1060 193° South 410 472 21,000 -2,093 Descending FlightAware ADS-B
Tue 10:04:17 PM 9.7990 -79.1220 192° South 392 451 19,600 -2,000 Descending FlightAware ADS-B
Tue 10:04:52 PM 9.7370 -79.1360 193° South 392 451 18,500 -1,950 Descending FlightAware ADS-B
Tue 10:05:37 PM 9.6590 -79.1530 192° South 382 440 17,000 -2,047 Descending FlightAware ADS-B
Tue 10:06:17 PM 9.5900 -79.1690 193° South 366 421 15,600 -2,025 Descending FlightAware ADS-B
Tue 10:06:57 PM 9.5230 -79.1840 192° South 365 420 14,300 -1,906 Descending FlightAware ADS-B
Tue 10:07:42 PM 9.4480 -79.2000 192° South 349 402 12,900 -1,906 Descending FlightAware ADS-B
Tue 10:08:22 PM 9.3850 -79.2150 193° South 350 403 11,600 -1,694 Descending FlightAware ADS-B
Tue 10:09:07 PM 9.3140 -79.2300 192° South 327 376 10,500 -1,125 Descending FlightAware ADS-B
Tue 10:09:42 PM 9.2640 -79.2410 192° South 298 343 10,100 -600 Descending FlightAware ADS-B
Tue 10:10:07 PM 9.2300 -79.2480 191° South 280 322 9,900 -900 Descending FlightAware ADS-B
Tue 10:10:22 PM 9.2120 -79.2520 192° South 283 326 9,500 -1,650 Descending FlightAware ADS-B
Tue 10:10:47 PM 9.1800 -79.2600 194° South 278 320 8,800 -1,474 Descending FlightAware ADS-B
Tue 10:11:19 PM 9.1410 -79.2690 193° South 277 319 8,100 -1,418 Descending FlightAware ADS-B
Tue 10:11:42 PM 9.1080 -79.2760 192° South 278 320 7,500 -1,500 Descending FlightAware ADS-B
Tue 10:11:47 PM 9.1020 -79.2770 189° South 278 320 7,400 -1,500 Descending FlightAware ADS-B
Tue 10:12:22 PM 9.0560 -79.2870 192° South 278 320 6,500 -1,300 Descending FlightAware ADS-B
Tue 10:12:47 PM 9.0240 -79.2960 196° South 286 329 6,100 -436 Descending FlightAware ADS-B
Tue 10:13:17 PM 8.9910 -79.3120 206° Southwest 278 320 6,100  Level FlightAware ADS-B
Tue 10:13:27 PM 8.9810 -79.3180 211° Southwest 278 320 6,100 -105 Level FlightAware ADS-B
Tue 10:14:14 PM 8.9310 -79.3450 208° Southwest 276 318 6,000 -621 Descending FlightAware ADS-B
Tue 10:14:54 PM 8.8860 -79.3700 209° Southwest 264 304 5,200 -985 Descending FlightAware ADS-B
Tue 10:15:37 PM 8.8500 -79.4050 224° Southwest 4,400 -947 Descending FlightAware ADS-B
Tue 10:18:00 PM 9.0667 -79.3667 31° Northeast  Level FlightAware Approximate
Tue 10:18:42 PM 8.9820 -79.4300 31° Northeast 185 213 1,600  Level FlightAware ADS-B
Tue 10:19:02 PM 9.0000 -79.4200 29° Northeast 184 212 1,200 -1,050 Descending FlightAware ADS-B
Tue 10:19:22 PM 9.0150 -79.4110 31° Northeast 168 193 900 -933 Descending FlightAware ADS-B
Tue 10:19:47 PM 9.0310 -79.4020 29° Northeast 147 169 500 -857 Descending FlightAware ADS-B
Tue 10:20:18 PM 9.0500 -79.3910 30° Northeast 154 177 100 -774 Descending FlightAware ADS-B
Tue 10:20:43 PM 9.0620 -79.3840 30° Northeast 69 79 -240 Descending FlightAware ADS-B
Tue 10:20:58 PM 9.0640 -79.3840 360° North 27 31  Level FlightAware ADS-B
Tue 10:21:08 PM 9.0650 -79.3840 360° North 20 23  Level FlightAware ADS-B
Tue 10:21:24 PM 9.0660 -79.3840 360° North 10 12  Level FlightAware ADS-B
Tue 10:21:44 PM 9.0670 -79.3840 360° North 5 6  Level FlightAware ADS-B
Tue 10:22:09 PM 9.0660 -79.3850 225° Southwest 4 5  Level FlightAware ADS-B

Login

Don't have an account? Register now (free) for customized features, flight alerts, and more!